createdAt,value
2019-01-16T00:02:11.579Z,92.00
2019-01-16T00:04:45.803Z,91.90
2019-01-16T00:07:20.649Z,92.00
2019-01-16T00:09:55.535Z,91.80
2019-01-16T00:12:30.427Z,92.10
2019-01-16T00:15:07.544Z,92.10
2019-01-16T00:17:43.152Z,92.40
2019-01-16T00:20:18.028Z,92.00
2019-01-16T00:23:05.037Z,92.20
2019-01-16T00:25:56.274Z,92.00
2019-01-16T00:28:33.144Z,92.00
2019-01-16T00:31:24.272Z,91.90
2019-01-16T00:34:04.138Z,92.00
2019-01-16T00:36:55.349Z,92.00
2019-01-16T00:39:32.181Z,91.90
2019-01-16T00:42:07.063Z,91.90
2019-01-16T00:44:41.919Z,91.90
2019-01-16T00:47:22.508Z,92.20
2019-01-16T00:50:00.251Z,92.40
2019-01-16T00:52:37.864Z,92.40
2019-01-16T00:55:15.419Z,92.60
2019-01-16T00:58:05.148Z,92.70
2019-01-16T01:00:52.256Z,92.70
2019-01-16T01:03:32.796Z,92.60
2019-01-16T01:06:10.320Z,92.80
2019-01-16T01:08:54.181Z,92.50
2019-01-16T01:11:41.464Z,92.40
2019-01-16T01:14:22.297Z,92.40
2019-01-16T01:16:57.141Z,92.60
2019-01-16T01:19:48.319Z,92.30
2019-01-16T01:22:25.460Z,92.40
2019-01-16T01:25:15.157Z,92.80
2019-01-16T01:27:58.805Z,92.50
2019-01-16T01:30:33.672Z,92.60
2019-01-16T01:33:11.491Z,92.60
2019-01-16T01:36:02.600Z,92.70
2019-01-16T01:38:43.432Z,92.90
2019-01-16T01:41:18.281Z,92.80
2019-01-16T01:43:56.176Z,92.40
2019-01-16T01:46:39.854Z,92.20
2019-01-16T01:49:20.635Z,92.30
2019-01-16T01:51:55.483Z,92.50
2019-01-16T01:54:48.434Z,92.60
2019-01-16T01:57:26.245Z,93.00
2019-01-16T02:00:01.099Z,93.00
2019-01-16T02:02:52.014Z,92.90
2019-01-16T02:05:29.830Z,92.80
2019-01-16T02:08:07.324Z,92.60
2019-01-16T02:10:42.195Z,92.40
2019-01-16T02:13:23.193Z,92.60
2019-01-16T02:16:08.044Z,92.70
2019-01-16T02:18:49.492Z,92.50
2019-01-16T02:21:28.057Z,92.70
2019-01-16T02:24:11.934Z,92.60
2019-01-16T02:26:52.755Z,92.30
2019-01-16T02:29:42.692Z,92.60
2019-01-16T02:32:17.571Z,92.50
2019-01-16T02:35:08.495Z,92.40
2019-01-16T02:38:01.227Z,92.30
2019-01-16T02:40:36.078Z,92.50
2019-01-16T02:43:10.949Z,92.30
2019-01-16T02:46:02.035Z,92.30
2019-01-16T02:48:36.937Z,92.40
2019-01-16T02:51:11.790Z,92.20
2019-01-16T02:53:49.654Z,92.30
2019-01-16T02:56:24.520Z,92.30
2019-01-16T02:59:05.130Z,92.10
2019-01-16T03:01:40.042Z,92.40
2019-01-16T03:04:17.878Z,92.30
2019-01-16T03:06:52.736Z,92.60
2019-01-16T03:09:33.271Z,92.30
2019-01-16T03:12:08.154Z,92.10
2019-01-16T03:14:59.067Z,92.10
2019-01-16T03:17:49.582Z,92.40
2019-01-16T03:20:24.457Z,92.20
2019-01-16T03:23:01.878Z,92.20
2019-01-16T03:25:39.395Z,92.20
2019-01-16T03:28:17.191Z,92.30
2019-01-16T03:31:03.865Z,92.40
2019-01-16T03:33:54.445Z,92.30
2019-01-16T03:36:41.018Z,92.50
2019-01-16T03:39:18.675Z,92.30
2019-01-16T03:42:09.791Z,92.20
2019-01-16T03:44:47.758Z,91.90
2019-01-16T03:47:31.452Z,92.00
2019-01-16T03:50:23.967Z,92.10
2019-01-16T03:53:01.540Z,91.90
2019-01-16T03:55:44.945Z,92.00
2019-01-16T03:58:19.791Z,91.70
2019-01-16T04:01:11.025Z,91.80
2019-01-16T04:04:00.072Z,92.00
2019-01-16T04:06:40.979Z,91.70
2019-01-16T04:09:33.744Z,91.20
2019-01-16T04:12:14.366Z,91.00
2019-01-16T04:14:52.121Z,91.30
2019-01-16T04:17:26.995Z,91.30
2019-01-16T04:20:07.846Z,91.10
2019-01-16T04:22:48.474Z,90.90
2019-01-16T04:25:39.702Z,90.80
2019-01-16T04:28:15.487Z,91.20
2019-01-16T04:30:50.360Z,90.90
2019-01-16T04:33:41.434Z,91.00
2019-01-16T04:36:16.297Z,90.90
2019-01-16T04:39:09.204Z,90.70
2019-01-16T04:41:44.081Z,91.10
2019-01-16T04:44:21.399Z,90.90
2019-01-16T04:46:56.275Z,90.70
2019-01-16T04:49:46.304Z,90.80
2019-01-16T04:52:23.818Z,90.80
2019-01-16T04:55:14.747Z,90.60
2019-01-16T04:57:55.292Z,90.80
2019-01-16T05:00:42.092Z,90.80
2019-01-16T05:03:29.849Z,90.60
2019-01-16T05:06:10.422Z,90.50
2019-01-16T05:08:54.316Z,90.50
2019-01-16T05:11:29.175Z,90.60
2019-01-16T05:14:04.052Z,90.40
2019-01-16T05:16:47.962Z,90.80
2019-01-16T05:19:28.485Z,90.70
2019-01-16T05:22:09.047Z,90.60
2019-01-16T05:24:43.898Z,90.40
2019-01-16T05:27:24.548Z,90.80
2019-01-16T05:30:02.173Z,90.60
2019-01-16T05:32:42.753Z,90.20
2019-01-16T05:35:33.960Z,90.30
2019-01-16T05:38:08.127Z,90.30
2019-01-16T05:40:54.824Z,89.60
2019-01-16T05:43:29.747Z,90.10
2019-01-16T05:46:04.648Z,89.70
2019-01-16T05:48:45.316Z,89.00
2019-01-16T05:51:29.406Z,89.90
2019-01-16T05:54:19.174Z,90.00
2019-01-16T05:56:59.991Z,89.40
2019-01-16T05:59:37.543Z,90.20
2019-01-16T06:02:24.624Z,90.60
2019-01-16T06:04:59.468Z,90.20
2019-01-16T06:07:34.361Z,89.80
2019-01-16T06:10:16.601Z,90.20
2019-01-16T06:13:00.249Z,89.50
2019-01-16T06:15:53.311Z,90.30
2019-01-16T06:18:36.891Z,89.80
2019-01-16T06:21:14.399Z,89.50
2019-01-16T06:24:04.493Z,89.80
2019-01-16T06:26:39.347Z,89.30
2019-01-16T06:29:14.240Z,88.70
2019-01-16T06:31:49.088Z,89.10
2019-01-16T06:34:35.837Z,90.00
2019-01-16T06:37:10.699Z,89.30
2019-01-16T06:39:45.563Z,88.30
2019-01-16T06:42:23.839Z,87.50
2019-01-16T06:45:07.522Z,88.80
2019-01-16T06:47:45.310Z,88.10
2019-01-16T06:50:20.178Z,89.20
2019-01-16T06:53:01.053Z,88.00
2019-01-16T06:55:51.123Z,88.10
2019-01-16T06:58:26.019Z,88.00
2019-01-16T07:01:10.477Z,87.00
2019-01-16T07:04:01.603Z,89.20
2019-01-16T07:06:52.439Z,89.00
2019-01-16T07:09:30.464Z,87.20
2019-01-16T07:12:21.583Z,88.00
2019-01-16T07:15:05.552Z,87.50
2019-01-16T07:17:56.619Z,88.80
2019-01-16T07:20:37.599Z,87.80
2019-01-16T07:23:29.159Z,87.30
2019-01-16T07:26:04.113Z,87.00
2019-01-16T07:28:45.019Z,88.20
2019-01-16T07:31:25.984Z,86.00
2019-01-16T07:34:00.881Z,87.30
2019-01-16T07:36:35.812Z,87.70
2019-01-16T07:39:10.714Z,86.40
2019-01-16T07:41:57.429Z,86.60
2019-01-16T07:44:41.503Z,86.80
2019-01-16T07:47:28.254Z,86.40
2019-01-16T07:50:06.744Z,87.00
2019-01-16T07:52:58.279Z,86.70
2019-01-16T07:55:48.461Z,86.10
2019-01-16T07:58:23.335Z,86.50
2019-01-16T08:01:07.514Z,87.50
2019-01-16T08:03:48.373Z,85.70
2019-01-16T08:06:39.832Z,86.80
2019-01-16T08:09:20.835Z,88.30
2019-01-16T08:12:07.521Z,87.40
2019-01-16T08:14:51.437Z,86.50
2019-01-16T08:17:42.650Z,86.00
2019-01-16T08:20:33.256Z,86.00
2019-01-16T08:23:11.016Z,87.30
2019-01-16T08:25:54.796Z,86.00
2019-01-16T08:28:32.427Z,86.80
2019-01-16T08:31:10.320Z,85.30
2019-01-16T08:33:45.185Z,85.60
2019-01-16T08:36:20.095Z,86.00
2019-01-16T08:38:57.355Z,85.50
2019-01-16T08:41:38.349Z,86.30
2019-01-16T08:44:14.016Z,84.70
2019-01-16T08:46:59.225Z,85.30
2019-01-16T08:49:39.534Z,83.10
2019-01-16T08:52:30.773Z,84.80
2019-01-16T08:55:05.710Z,85.30
2019-01-16T08:57:40.597Z,84.90
2019-01-16T09:00:15.529Z,85.20
2019-01-16T09:02:50.433Z,84.80
2019-01-16T09:05:37.143Z,85.10
2019-01-16T09:08:28.099Z,85.50
2019-01-16T09:11:20.481Z,85.20
2019-01-16T09:14:04.223Z,85.10
2019-01-16T09:16:39.092Z,86.20
2019-01-16T09:19:13.999Z,84.50
2019-01-16T09:22:03.719Z,85.10
2019-01-16T09:24:56.659Z,85.50
2019-01-16T09:27:34.477Z,85.80
2019-01-16T09:30:12.444Z,84.50
2019-01-16T09:32:59.595Z,84.30
2019-01-16T09:35:34.494Z,85.20
2019-01-16T09:38:21.355Z,84.90
2019-01-16T09:40:59.162Z,84.50
2019-01-16T09:43:49.031Z,83.60
2019-01-16T09:46:23.913Z,83.80
2019-01-16T09:48:58.951Z,84.40
2019-01-16T09:51:51.678Z,85.30
2019-01-16T09:54:42.464Z,85.10
2019-01-16T09:57:25.878Z,84.80
2019-01-16T10:00:00.762Z,84.80
2019-01-16T10:02:51.757Z,84.30
2019-01-16T10:05:29.665Z,84.90
2019-01-16T10:08:05.333Z,84.90
2019-01-16T10:10:49.081Z,83.10
2019-01-16T10:13:26.701Z,83.50
2019-01-16T10:16:17.910Z,83.10
2019-01-16T10:19:07.983Z,83.80
2019-01-16T10:21:48.556Z,83.60
2019-01-16T10:24:23.437Z,83.80
2019-01-16T10:27:03.950Z,84.10
2019-01-16T10:29:41.600Z,84.80
2019-01-16T10:32:31.318Z,83.50
2019-01-16T10:35:16.690Z,84.00
2019-01-16T10:38:07.596Z,83.30
2019-01-16T10:40:58.501Z,84.00
2019-01-16T10:43:49.763Z,82.30
2019-01-16T10:46:32.937Z,83.60
2019-01-16T10:49:23.772Z,85.20
2019-01-16T10:51:58.667Z,83.50
2019-01-16T10:54:42.584Z,85.50
2019-01-16T10:57:17.472Z,84.40
2019-01-16T11:00:07.445Z,83.00
2019-01-16T11:02:45.020Z,83.30
2019-01-16T11:05:22.917Z,84.60
2019-01-16T11:08:03.896Z,85.00
2019-01-16T11:10:39.580Z,83.50
2019-01-16T11:13:24.122Z,83.40
2019-01-16T11:16:13.863Z,83.50
2019-01-16T11:19:06.873Z,84.70
2019-01-16T11:21:57.756Z,84.40
2019-01-16T11:24:48.873Z,85.80
2019-01-16T11:27:23.750Z,82.50
2019-01-16T11:30:07.436Z,82.90
2019-01-16T11:32:48.139Z,83.20
2019-01-16T11:35:23.067Z,83.30
2019-01-16T11:38:00.900Z,84.60
2019-01-16T11:40:35.827Z,82.10
2019-01-16T11:43:25.795Z,83.60
2019-01-16T11:46:00.781Z,82.60
2019-01-16T11:48:35.650Z,81.40
2019-01-16T11:51:10.531Z,82.60
2019-01-16T11:53:57.641Z,81.30
2019-01-16T11:56:38.287Z,81.80
2019-01-16T11:59:13.164Z,80.50
2019-01-16T12:01:48.017Z,82.00
2019-01-16T12:04:38.004Z,80.00
2019-01-16T12:07:12.859Z,80.70
2019-01-16T12:10:03.940Z,80.50
2019-01-16T12:12:41.629Z,80.80
2019-01-16T12:15:28.508Z,81.30
2019-01-16T12:18:06.398Z,81.70
2019-01-16T12:20:44.007Z,80.80
2019-01-16T12:23:24.600Z,81.10
2019-01-16T12:25:59.470Z,80.70
2019-01-16T12:28:34.355Z,80.20
2019-01-16T12:31:15.266Z,79.00
2019-01-16T12:33:50.168Z,80.00
2019-01-16T12:36:25.047Z,79.10
2019-01-16T12:39:16.467Z,78.30
2019-01-16T12:41:59.580Z,78.60
2019-01-16T12:44:42.642Z,80.30
2019-01-16T12:47:33.736Z,80.60
2019-01-16T12:50:11.573Z,78.40
2019-01-16T12:52:55.518Z,77.10
2019-01-16T12:55:42.673Z,77.00
2019-01-16T12:58:20.230Z,78.40
2019-01-16T13:00:58.111Z,80.00
2019-01-16T13:03:38.933Z,77.50
2019-01-16T13:06:13.820Z,79.20
2019-01-16T13:09:03.589Z,77.90
2019-01-16T13:11:53.725Z,78.60
2019-01-16T13:14:40.582Z,80.40
2019-01-16T13:17:18.556Z,79.20
2019-01-16T13:19:56.119Z,79.00
2019-01-16T13:22:46.528Z,77.10
2019-01-16T13:25:21.445Z,77.00
2019-01-16T13:27:59.054Z,76.80
2019-01-16T13:30:33.904Z,75.30
2019-01-16T13:33:14.757Z,75.90
2019-01-16T13:35:52.684Z,73.10
2019-01-16T13:38:27.543Z,74.70
2019-01-16T13:41:08.633Z,74.00
2019-01-16T13:43:49.523Z,74.10
2019-01-16T13:46:24.455Z,74.50
2019-01-16T13:49:08.100Z,73.10
2019-01-16T13:51:59.585Z,71.20
2019-01-16T13:54:50.818Z,68.90
2019-01-16T13:57:25.028Z,68.80
2019-01-16T14:00:05.640Z,68.00
2019-01-16T14:02:43.642Z,65.70
2019-01-16T14:05:18.510Z,68.10
2019-01-16T14:07:53.396Z,68.20
2019-01-16T14:10:37.559Z,69.30
2019-01-16T14:13:18.221Z,68.80
2019-01-16T14:15:56.030Z,67.20
2019-01-16T14:18:33.604Z,69.00
2019-01-16T14:21:08.516Z,69.30
2019-01-16T14:23:49.346Z,67.10
2019-01-16T14:26:27.294Z,68.80
2019-01-16T14:29:18.707Z,69.80
2019-01-16T14:32:10.066Z,70.80
2019-01-16T14:35:01.388Z,72.80
2019-01-16T14:37:42.391Z,74.00
2019-01-16T14:40:22.951Z,74.50
2019-01-16T14:43:14.144Z,74.60
2019-01-16T14:45:49.012Z,75.60
2019-01-16T14:48:41.960Z,75.60
2019-01-16T14:51:25.902Z,77.60
2019-01-16T14:54:17.344Z,77.90
2019-01-16T14:57:01.386Z,76.90
2019-01-16T14:59:38.909Z,77.70
2019-01-16T15:02:16.460Z,78.70
2019-01-16T15:04:54.529Z,78.80
2019-01-16T15:07:45.759Z,78.70
2019-01-16T15:10:20.646Z,78.60
2019-01-16T15:12:55.583Z,80.10
2019-01-16T15:15:33.155Z,80.70
2019-01-16T15:18:23.087Z,80.90
2019-01-16T15:21:07.135Z,82.40
2019-01-16T15:23:47.491Z,82.20
2019-01-16T15:26:40.412Z,82.20
2019-01-16T15:29:17.858Z,83.60
2019-01-16T15:34:47.278Z,82.90
2019-01-16T15:37:24.803Z,83.00
2019-01-16T15:40:14.726Z,83.40
2019-01-16T15:42:52.515Z,83.90
2019-01-16T15:45:27.389Z,83.50
2019-01-16T15:48:18.763Z,83.40
2019-01-16T15:50:55.841Z,84.70
2019-01-16T15:53:33.463Z,84.00
2019-01-16T15:56:11.057Z,84.50
2019-01-16T15:58:54.975Z,84.90
2019-01-16T16:01:46.143Z,85.40
2019-01-16T16:04:24.025Z,86.00
2019-01-16T16:06:58.899Z,86.10
2019-01-16T16:09:33.767Z,86.20
2019-01-16T16:12:26.407Z,86.30
2019-01-16T16:15:01.301Z,87.30
2019-01-16T16:17:48.067Z,87.80
2019-01-16T16:20:28.710Z,87.20
2019-01-16T16:23:12.649Z,88.10
2019-01-16T16:25:56.575Z,87.50
2019-01-16T16:28:34.109Z,87.90
2019-01-16T16:31:08.981Z,87.80
2019-01-16T16:33:53.182Z,87.20
2019-01-16T16:36:33.748Z,87.20
2019-01-16T16:39:25.606Z,87.50
2019-01-16T16:42:00.463Z,88.00
2019-01-16T16:44:38.316Z,86.80
2019-01-16T16:47:15.823Z,86.40
2019-01-16T16:50:02.558Z,86.50
2019-01-16T16:52:40.146Z,87.00
2019-01-16T16:55:18.030Z,86.00
2019-01-16T16:57:52.887Z,86.90
2019-01-16T17:00:33.843Z,86.50
2019-01-16T17:03:14.531Z,86.20
2019-01-16T17:06:04.247Z,86.20
2019-01-16T17:08:57.292Z,86.10
2019-01-16T17:11:32.167Z,86.20
2019-01-16T17:14:07.028Z,86.80
2019-01-16T17:16:47.702Z,87.50
2019-01-16T17:19:31.340Z,87.30
2019-01-16T17:22:18.688Z,87.10
2019-01-16T17:24:56.250Z,87.20
2019-01-16T17:27:47.094Z,86.40
2019-01-16T17:30:37.020Z,86.60
2019-01-16T17:33:17.778Z,86.90
2019-01-16T17:36:01.497Z,87.30
2019-01-16T17:38:45.068Z,88.50
2019-01-16T17:41:19.961Z,88.30
2019-01-16T17:44:10.840Z,89.00
2019-01-16T17:46:48.119Z,88.80
2019-01-16T17:49:28.690Z,89.90
2019-01-16T17:52:19.562Z,88.90
2019-01-16T17:55:00.488Z,88.70
2019-01-16T17:57:50.311Z,88.00
2019-01-16T18:00:36.964Z,88.20
2019-01-16T18:03:11.840Z,88.20
2019-01-16T18:05:49.387Z,89.10
2019-01-16T18:08:24.283Z,89.20
2019-01-16T18:10:59.160Z,89.10
2019-01-16T18:13:34.113Z,89.60
2019-01-16T18:16:25.426Z,89.50
2019-01-16T18:18:59.621Z,89.60
2019-01-16T18:21:43.325Z,89.60
2019-01-16T18:24:20.840Z,90.00
2019-01-16T18:26:55.715Z,89.30
2019-01-16T18:29:30.578Z,89.10
2019-01-16T18:32:20.429Z,88.80
2019-01-16T18:34:55.309Z,88.10
2019-01-16T18:37:36.180Z,87.70
2019-01-16T18:40:13.467Z,88.10
2019-01-16T18:43:04.401Z,88.50
2019-01-16T18:45:48.976Z,89.10
2019-01-16T18:48:29.836Z,89.80
2019-01-16T18:51:04.709Z,88.70
2019-01-16T18:53:48.525Z,88.90
2019-01-16T18:56:39.525Z,90.00
2019-01-16T18:59:30.680Z,88.70
2019-01-16T19:02:05.819Z,90.00
2019-01-16T19:04:56.982Z,88.70
2019-01-16T19:07:31.868Z,89.10
2019-01-16T19:10:21.876Z,89.50
2019-01-16T19:13:08.542Z,88.40
2019-01-16T19:15:46.491Z,89.10
2019-01-16T19:18:21.361Z,88.60
2019-01-16T19:21:01.920Z,88.60
2019-01-16T19:23:45.519Z,88.60
2019-01-16T19:26:35.547Z,88.20
2019-01-16T19:29:12.975Z,88.20
2019-01-16T19:32:02.932Z,88.40
2019-01-16T19:34:37.804Z,89.40
2019-01-16T19:37:13.624Z,89.20
2019-01-16T19:40:04.771Z,88.70
2019-01-16T19:42:47.780Z,88.90
2019-01-16T19:45:22.636Z,88.80
2019-01-16T19:48:03.630Z,89.40
2019-01-16T19:50:54.530Z,87.70
2019-01-16T19:53:29.433Z,88.60
2019-01-16T19:56:04.358Z,87.30
2019-01-16T19:58:45.402Z,86.60
2019-01-16T20:01:25.943Z,86.80
2019-01-16T20:04:03.817Z,86.60
2019-01-16T20:06:55.006Z,86.40
2019-01-16T20:09:38.914Z,86.70
2019-01-16T20:12:13.774Z,86.30
2019-01-16T20:15:03.757Z,86.70
2019-01-16T20:17:55.020Z,87.60
2019-01-16T20:20:37.912Z,86.10
2019-01-16T20:23:24.543Z,87.10
2019-01-16T20:26:11.581Z,87.10
2019-01-16T20:29:01.310Z,87.20
2019-01-16T20:31:48.025Z,86.80
2019-01-16T20:34:28.867Z,86.40
2019-01-16T20:37:03.736Z,85.80
2019-01-16T20:39:54.931Z,86.80
2019-01-16T20:42:30.082Z,84.70
2019-01-16T20:45:21.052Z,85.40
2019-01-16T20:48:01.649Z,83.90
2019-01-16T20:50:42.174Z,84.10
2019-01-16T20:53:22.902Z,84.40
2019-01-16T20:56:00.704Z,84.80
2019-01-16T20:58:44.535Z,84.10
2019-01-16T21:01:31.395Z,84.00
2019-01-16T21:04:06.362Z,82.80
2019-01-16T21:06:49.949Z,83.40
2019-01-16T21:09:27.844Z,83.10
2019-01-16T21:12:08.994Z,82.20
2019-01-16T21:14:59.997Z,82.90
2019-01-16T21:17:37.912Z,82.60
2019-01-16T21:20:12.808Z,82.40
2019-01-16T21:22:59.746Z,82.20
2019-01-16T21:25:37.321Z,82.30
2019-01-16T21:28:12.193Z,82.50
2019-01-16T21:31:02.205Z,82.50
2019-01-16T21:33:55.010Z,82.00
2019-01-16T21:36:29.897Z,82.40
2019-01-16T21:39:07.454Z,81.80
2019-01-16T21:41:54.200Z,82.10
2019-01-16T21:44:34.773Z,82.60
2019-01-16T21:47:09.649Z,82.40
2019-01-16T21:49:56.332Z,82.40
2019-01-16T21:52:31.389Z,81.70
2019-01-16T21:55:13.074Z,82.00
2019-01-16T21:57:50.863Z,82.90
2019-01-16T22:00:25.754Z,82.40
2019-01-16T22:03:15.483Z,82.40
2019-01-16T22:05:56.329Z,81.70
2019-01-16T22:08:31.726Z,81.80
2019-01-16T22:11:06.703Z,82.20
2019-01-16T22:13:44.744Z,82.50
2019-01-16T22:16:25.682Z,81.90
2019-01-16T22:19:15.458Z,83.90
2019-01-16T22:21:56.383Z,83.80
2019-01-16T22:24:42.971Z,82.20
2019-01-16T22:27:17.844Z,81.70
2019-01-16T22:30:08.738Z,82.10
2019-01-16T22:32:43.675Z,82.20
2019-01-16T22:35:34.595Z,80.80
2019-01-16T22:38:20.799Z,81.40
2019-01-16T22:41:13.599Z,82.50
2019-01-16T22:44:00.191Z,81.70
2019-01-16T22:46:47.046Z,84.10
2019-01-16T22:49:39.837Z,81.30
2019-01-16T22:52:29.859Z,83.50
2019-01-16T22:55:19.544Z,82.10
2019-01-16T22:57:54.447Z,82.60
2019-01-16T23:00:45.146Z,81.90
2019-01-16T23:03:22.788Z,81.70
2019-01-16T23:06:00.363Z,81.40
2019-01-16T23:08:35.242Z,82.40
2019-01-16T23:11:10.115Z,82.20
2019-01-16T23:13:47.658Z,81.90
2019-01-16T23:16:38.622Z,82.40
2019-01-16T23:19:28.584Z,82.10
2019-01-16T23:22:21.448Z,81.70
2019-01-16T23:25:05.062Z,83.10
2019-01-16T23:27:55.935Z,82.20
2019-01-16T23:30:30.801Z,83.10
2019-01-16T23:33:11.639Z,81.90
2019-01-16T23:36:02.547Z,82.70
2019-01-16T23:38:40.353Z,82.50
2019-01-16T23:41:21.295Z,82.30
2019-01-16T23:44:05.119Z,82.70
2019-01-16T23:46:45.398Z,82.90
2019-01-16T23:49:23.113Z,83.50
2019-01-16T23:51:57.971Z,82.80
2019-01-16T23:54:48.031Z,83.70
2019-01-16T23:57:31.730Z,83.30
